Extreme weather reports worldwide

Snow

Station
 
Location
 
Name
 
Wind
Knots
Gust
Knots
Vis
SM
Temp/Dew
C
Baro
inHg
METAR
 
KMWN 71 77 0.06 -28/-28 KMWN 182156Z 29071G77KT 1/16SM FZFG BLSN VV002 M28/M28 RMK PK WND 25092/03 FZFG INTMT VRY LGT ICG
MOT KMOT Minot, US Minot International Airport 33 43 0.25 -18/-22 29.98 KMOT 182207Z 29033G43KT 1/4SM BLSN VV007 M18/M22 A2998 RMK AO2 PK WND 29043/2205 T11831222
MIB KMIB Minot, US Minot Air Force Base 32 41 0.38 -20/-23 29.97 KMIB 182156Z 33032G41KT 3/8SM R12/2200V2600FT BLSN SCT009 M20/M24 A2997 RMK PK WND 34041/04 SLP191 P0000 T12011239 $
AXN KAXN Alexandria, US Chandler Field 25 40 1.5 -8/-10 29.64 KAXN 182220Z AUTO 30025G40KT 1 1/2SM -SN BR OVC014 M08/M11 A2964 RMK AO2 PK WND 31040/2211 SNB13 P0000 T10831106
K5H4 31 38 0.25 -19/-21 29.93 K5H4 182215Z AUTO 31031G38KT 1/4SM -SN SCT008 BKN013 M19/M21 A2993 RMK AO2

Station
 
Location
 
Name
 
Wind
Knots
Gust
Knots
Vis
SM
Temp/Dew
C
Baro
inHg
METAR
 
K2D5 29 37 0.25 -12/-13 29.84 K2D5 182215Z AUTO 32029G37KT M1/4SM -SN BKN003 BKN008 OVC014 M12/M13 A2984 RMK AO2
K46D 28 37 0.25 -16/-18 29.89 K46D 182215Z AUTO 31028G37KT M1/4SM -SN OVC001 M16/M18 A2989 RMK AO2
CZF PACZ Cape Romanzof, US Cape Romanzof LRRS Airport 27 36 0.5 -17/-20 29.90 PACZ 182207Z AUTO 07027G36KT 1/2SM -SN FZFG VV002 M17/M20 A2990 RMK AO2 SLP145
KBAC 27 36 0.25 -14/-15 29.81 KBAC 182215Z AUTO 32027G36KT M1/4SM +SN FZFG BKN003 BKN007 OVC019 M14/M15 A2981 RMK AO2
FAR KFAR Fargo, US Hector International Airport 27 36 0.75 -11/-15 29.79 KFAR 182219Z 32027G36KT 3/4SM -SN VV015 M12/M15 A2979 RMK AO2 PK WND 31036/2218 SNB15 P0000 T11171150
PKD KPKD Park Rapids, US Park Rapids Municipal Konshok Field 24 36 0.5 -7/-11 29.55 KPKD 182153Z AUTO 30024G36KT 1/2SM SN BKN016 OVC021 M08/M11 A2955 RMK AO2 PK WND 31036/2137 SNB14 PRESRR SLP027 P0000 T10781111
DTL KDTL Detroit Lakes, US Detroit Lakes Airport - Wething Field 21 35 2 -11/-14 29.65 KDTL 182215Z AUTO 31021G35KT 2SM -SN HZ BKN009 OVC014 M11/M14 A2965 RMK AO2 VIS 1V4
FFM KFFM Fergus Falls, US Fergus Falls Municipal Airport - Einar Mickelson Field 29 34 1 -8/-11 29.67 KFFM 182215Z AUTO 32029G34KT 1SM -SN BKN018 OVC024 M08/M11 A2967 RMK AO2
K1KM 27 33 10 -12/-15 29.99 K1KM 182158Z AUTO 02027G33KT 10SM -SN BKN033 BKN045 BKN075 M12/M15 A2999 RMK AO2 PK WND 02033/53 SLP212 T11201150 $
YEN CYEN Estevan, CA Estevan Airport 23 33 1 -19/-23 30.08 CYEN 182229Z AUTO 32023G33KT 1SM -SN BLSN SCT013 BKN066 M19/M23 A3008 RMK SLP247
RDR KRDR Grand Forks, US Grand Forks Air Force Base 24 32 0.25 -13/-15 29.77 KRDR 182157Z 32024G32KT 1/4SM BLSN SCT007 BKN013 M13/M16 A2977 RMK AO2A PK WND 30039/06 SLP103 T11301158 $
BJI KBJI Bemidji, US Bemidji Regional Airport 21 32 0.5 -11/-13 29.56 KBJI 182215Z AUTO 29021G32KT 1/2SM -SN OVC019 M11/M14 A2956 RMK AO2 T11131139
YRF CYCA Cartwright, CA Cartwright Airport 19 32 2.5 1/-1 28.97 CYCA 182224Z AUTO 15019G32KT 2 1/2SM -SN OVC035 01/M01 A2897 RMK PRESFR SLP813
YWG CYWG Winnipeg, CA Winnipeg / James Armstrong Richardson International Airport 26 31 2 -15/-19 29.78 CYWG 182200Z CCA 34026G31KT 2SM BLSN BKN023 M15/M19 A2978 RMK BLSN1SF5 VIS VRB 11/2-21/2 PRESRR SLP107
DVL KDVL Devils Lake, US Devils Lake Regional Airport 24 31 1.25 -16/-18 29.84 KDVL 182210Z AUTO 31024G31KT 1 1/4SM -SN FEW012 OVC022 M16/M18 A2984 RMK AO2 PK WND 30032/2200 VIS 1V2 1/2 P0000 FZRANO
TVF KTVF Thief River Falls, US Thief River Falls Regional Airport 24 31 0.5 -14/-16 29.67 KTVF 182156Z AUTO 31024G31KT 1/2SM -SN FZFG OVC009 M14/M16 A2967 RMK AO2 PK WND 31035/2127 CIG 005V012 SLP071 P0000 T11441161 FZRANO
YPG CYPG Portage la Prairie, CA Southport Airport 23 31 2.25 -18/-21 29.88 CYPG 182200Z 33023G31KT 2 1/4SM -SN BLSN SCT007 BKN022 M18/M21 A2988 RMK BLSN2SF2SC1 PRESRR SLP142
K3N8 20 30 0.25 -12/-13 29.68 K3N8 182215Z AUTO 31020G30KT 1/4SM SN M12/M14 A2968 RMK AO2 T11201137
BDE KBDE Baudette, US Baudette International Airport 18 30 4 -8/-11 29.49 KBDE 182219Z AUTO 32018G30KT 4SM -SN BKN015 BKN023 OVC038 M09/M12 A2949 RMK AO2 PK WND 31030/2212 P0000 T10891117 $
ZUM CZUM Churchill Falls, CA Churchill Falls Airport 22 29 1.25 -18/-21 29.09 CZUM 182200Z AUTO 31022G29KT 1 1/4SM -SN BLSN SCT030 OVC042 M18/M21 A2909 RMK PRESRR SLP886
YYY CYYY Mont-Joli, CA Mont Joli Airport 22 29 15 -14/-20 29.59 CYYY 182200Z 29022G29KT 15SM DRSN BKN032 M14/M20 A2959 RMK SC6 PRESRR SLP027
YGR CYGR Îles-de-la-Madeleine, CA Îles-de-la-Madeleine Airport 21 29 15 -3/-6 29.19 CYGR 182200Z 29021G29KT 15SM -SN OVC033 M03/M06 A2919 RMK SC8 SLP886
KVWU Waskish, US Waskish Municipal Airport 21 28 1.5 -7/-9 29.51 KVWU 182215Z AUTO 28021G28KT 1 1/2SM -SN OVC014 M07/M09 A2951 RMK AO2
KD57 20 28 1.25 -14/-18 30.02 KD57 182215Z AUTO 32020G28KT 1 1/4SM -SN BKN018 OVC023 M14/M18 A3002 RMK AO2
VAR LBWN Varna, BG Varna Airport 17 28 6.21 0/-6 30.32 LBWN 182200Z 35017G28KT 9999 -SN FEW021 BKN042 00/M06 Q1027 REFZRA NOSIG
YWK CYWK Wabush, CA Wabush Airport 19 27 3 -22/-26 29.25 CYWK 182200Z 31019G27KT 3SM -SN BLSN OVC025 M22/M26 A2925 RMK SC8 SLP956
ISQ KISQ Manistique, US Schoolcraft County Airport 18 27 0.75 0/-1 29.56 KISQ 182215Z AUTO 15018G27KT 3/4SM -SN OVC004 M01/M02 A2956 RMK AO2 T10081016
KANJ Sault Ste Marie, US Sault Ste Marie Municipal Sanderson Field 13 27 0.5 -10/-14 29.72 KANJ 182227Z AUTO 10013G27KT 1/2SM SN VV016 M11/M14 A2972 RMK AO2 PK WND 11027/2221 P0001 T11061144
YUT CYUT Repulse Bay, CA Naujaat Airport 19 26 15 -32/-36 29.75 CYUT 182200Z 35019G26KT 15SM DRSN SKC M32/M36 A2975 RMK SLP082
K20U 19 26 7 -14/-18 30.07 K20U 182215Z AUTO 32019G26KT 7SM -SN OVC020 M14/M18 A3007 RMK AO2
MQT KSAW Marquette, US Sawyer International Airport 20 25 0.75 -2/-2 29.42 KSAW 182147Z 18020G25KT 3/4SM -SN OVC006 M02/M02 A2942
YBG CYBG Bagotville, CA CFB Bagotville 19 25 8 -22/-26 29.84 CYBG 182200Z 28019G25KT 8SM DRSN FEW025 M22/M26 A2984 RMK SC2 SLP122
YPS CYPD Port Hawkesbury, CA Port Hawkesbury Airport 18 25 1.25 -1/-1 29.22 CYPD 182204Z AUTO 28018G25KT 1 1/4SM -SN OVC004 M01/M01 A2922 RMK SLP902
KADC Wadena, US Wadena Municipal Airport 18 25 4 -9/-13 29.61 KADC 182215Z AUTO 31018G25KT 4SM -SN OVC020 M09/M13 A2961 RMK AO2
CIU KCIU Sault Ste Marie, US Chippewa County International Airport 18 25 0.25 -11/-12 29.70 KCIU 182221Z AUTO 11018G25KT 1/4SM +SN FZFG OVC010 M11/M12 A2970 RMK AO2 CIG 007V012 P0000 FZRANO
KY49 17 25 3 -8/-11 29.53 KY49 182215Z AUTO 29017G25KT 3SM -SN OVC016 M09/M11 A2953 RMK AO2 T10871115
KFIT Fitchburg, US Fitchburg Municipal Airport 18 24 9 -4/-15 29.90 KFIT 182152Z AUTO 29018G24KT 9SM -SN CLR M04/M16 A2990 RMK AO2 PK WND 30027/2122 SNB2056 SLP132 P0000 T10441156
YZV CYZV Sept-Îles, CA Sept-Îles Airport 14 24 15 -11/-16 29.23 CYZV 182200Z 31014G24KT 15SM -SHSN DRSN BKN058 OVC080 M11/M16 A2923 RMK SC7AC1 CVCTV CLDS EMBD PRESRR SLP905
YHK CYHK Gjoa Haven, CA Gjoa Haven Airport 18 23 0.5 -28/-31 30.00 CYHK 182200Z 34018G23KT 1/2SM BLSN SKC M28/M31 A3000 RMK BLSN2 SLP171
YKY CYKY Kindersley, CA Kindersley Airport 15 23 15 -22/-27 30.29 CYKY 182200Z 32015G23KT 15SM DRSN FEW100 M22/M27 A3029 RMK AC1 SLP329
KSJX Beaver Island, US Beaver Island Airport 13 23 0.75 -2/-2 29.60 KSJX 182215Z AUTO 13013G23KT 3/4SM -SN BKN007 OVC014 M02/M02 A2960 RMK AO2 T10211025
KERY Newberry, US Luce County Airport 17 21 2.5 -6/-7 29.59 KERY 182215Z AUTO 12017G21KT 2 1/2SM -SN SCT007 BKN012 OVC024 M06/M07 A2959 RMK AO2 T10611070
ROX KROX Roseau, US Roseau Municipal Rudy Billberg Field 15 21 4 -12/-14 29.59 KROX 182215Z AUTO 29015G21KT 4SM -SN CLR M12/M14 A2959 RMK AO2
YHZ CYHZ Halifax, CA Halifax / Stanfield International Airport 15 21 12 -4/-6 29.33 CYHZ 182200Z 29015G21KT 12SM -SHSN SCT013 BKN017 OVC025 M04/M06 A2933 RMK SC3SC4SC1 CVCTV CLD EMBD SLP939
ESC KESC Escanaba, US Delta County Airport 15 21 3 1/-1 29.50 KESC 182218Z AUTO 17015G21KT 3SM -SN BR SCT007 OVC012 01/M01 A2950 RMK AO2 P0000 FZRANO